• Join FlightAware (Why Join?)
  • Login
  • US Flag 
06:16AM EDT


 

Airport Tracker/Info


-or-


 

Live Flight TrackerFlight Track Log ✈ DLH1150 ✈ 23-Jul-2013 ✈ EDDF / FRA - LEMG / AGP

Flight Track Log - Related Links

Times and Time Zones

All times are in EDT time to prevent confusion due to time zone crossing. See the DLH1150 flight status page for this flight to view local times or setup timezone preferences in your user account.

Time Position Orientation Groundspeed Altitude Reporting Facility
EDT Latitude Longitude Course Direction KTS MPH feet Rate Location/Type
07:36AM 50.0450 8.5630 233° Southwest 10 12  Level FlightAware
07:40AM 50.0450 8.5620 270° West 26 30 60 Level FlightAware
07:40AM 50.0440 8.5610 213° Southwest 29 33 120 Level FlightAware
07:40AM 50.0440 8.5600 270° West 29 33 120 Level FlightAware
07:41AM 50.0430 8.5600 180° South 31 36 120 Level FlightAware
07:41AM 50.0420 8.5570 243° Southwest 22 25 120 Level FlightAware
07:41AM 50.0410 8.5550 232° Southwest 24 28 180 Level FlightAware
07:42AM 50.0410 8.5520 270° West 17 20 180 Level FlightAware
07:42AM 50.0400 8.5480 249° West 24 28 180 Level FlightAware
07:43AM 50.0390 8.5440 249° West 19 22 180 Level FlightAware
07:43AM 50.0370 8.5400 232° Southwest 22 25 180 Level FlightAware
07:44AM 50.0370 8.5360 270° West 17 20 240 Level FlightAware
07:44AM 50.0360 8.5330 243° Southwest 23 26 240 Level FlightAware
07:45AM 50.0350 8.5290 249° West 32 37 300 Level FlightAware
07:45AM 50.0340 8.5280 213° Southwest 30 35 360 Level FlightAware
07:45AM 50.0340 8.5260 270° West 19 22 360 Level FlightAware
07:47AM 50.0310 8.5260 180° South 74 85 420 Level FlightAware
07:48AM 50.0190 8.5260 180° South 165 190 1,560 Level FlightAware
07:48AM 49.9950 8.5270 178° South 182 209 1,300 1,500 Climbing FlightAware
07:49AM 49.9620 8.5300 177° South 190 219 1,800 1,200 Climbing FlightAware
07:49AM 49.9350 8.5320 177° South 240 276 2,600 1,920 Climbing FlightAware
07:50AM 49.9170 8.5330 178° South 263 303 3,100 2,760 Climbing FlightAware
07:50AM 49.8790 8.5360 177° South 258 297 4,700 3,120 Climbing FlightAware
07:50AM 49.8690 8.5360 180° South 261 300 5,100 2,640 Climbing FlightAware
07:51AM 49.8270 8.5260 189° South 265 305 6,600 2,760 Climbing FlightAware
07:51AM 49.7900 8.5120 194° South 271 312 8,000 2,640 Climbing FlightAware
07:52AM 49.7560 8.4990 194° South 277 319 9,200 2,400 Climbing FlightAware
07:52AM 49.7360 8.4910 194° South 282 325 9,800 2,340 Climbing FlightAware
07:53AM 49.6840 8.4720 193° South 293 337 11,400 2,460 Climbing FlightAware
07:53AM 49.6310 8.4520 194° South 295 339 13,100 1,800 Climbing FlightAware
07:54AM 49.5690 8.4290 194° South 330 380 14,000 1,020 Climbing FlightAware
07:55AM 49.5080 8.4070 193° South 366 421 14,600 1,320 Climbing FlightAware
07:55AM 49.4320 8.3790 193° South 382 440 15,900 1,800 Climbing FlightAware
07:56AM 49.3620 8.3530 194° South 390 449 17,200 1,920 Climbing FlightAware
07:57AM 49.2960 8.3290 193° South 396 456 18,400 1,620 Climbing FlightAware
07:58AM 49.1990 8.2940 193° South 411 473 19,700 1,500 Climbing FlightAware
07:58AM 49.1230 8.2660 194° South 412 474 20,800 1,500 Climbing FlightAware
07:59AM 49.0460 8.2380 193° South 429 494 21,700 1,560 Climbing FlightAware
07:59AM 48.9890 8.2170 194° South 427 491 22,600 1,560 Climbing FlightAware
08:00AM 48.9000 8.1850 193° South 434 499 23,700 1,320 Climbing FlightAware
08:01AM 48.8150 8.1540 194° South 440 506 24,600 1,200 Climbing FlightAware
08:02AM 48.7390 8.1270 193° South 446 513 25,300 1,200 Climbing FlightAware
08:02AM 48.6630 8.1000 193° South 448 516 26,200 1,140 Climbing FlightAware
08:03AM 48.5730 8.0680 193° South 446 513 26,900 900 Climbing FlightAware
08:04AM 48.4950 8.0410 193° South 450 518 27,500 900 Climbing FlightAware
08:04AM 48.3960 8.0060 193° South 463 533 28,200 960 Climbing FlightAware
08:05AM 48.3100 7.9760 193° South 465 535 28,900 960 Climbing FlightAware
08:06AM 48.2280 7.9470 193° South 460 529 29,500 1,020 Climbing FlightAware
08:07AM 48.1020 7.9030 193° South 465 535 30,600 960 Climbing FlightAware
08:07AM 48.0160 7.8730 193° South 459 528 31,200 900 Climbing FlightAware
08:08AM 47.9240 7.8410 193° South 463 533 31,900 1,020 Climbing FlightAware
08:09AM 47.8180 7.8050 193° South 459 528 32,900 1,080 Climbing FlightAware
08:10AM 47.7360 7.7760 193° South 448 516 33,600 1,020 Climbing FlightAware
08:10AM 47.6440 7.7450 193° South 447 514 34,400 960 Climbing FlightAware
08:11AM 47.5660 7.7180 193° South 442 509 35,000 420 Climbing FlightAware
08:12AM 47.4900 7.6920 193° South 451 519 35,000  Level FlightAware
08:12AM 47.3990 7.6610 193° South 460 529 35,000  Level FlightAware
08:13AM 47.3110 7.6270 195° South 464 534 35,000  Level FlightAware
08:14AM 47.2090 7.5890 194° South 460 529 35,000  Level FlightAware
08:15AM 47.1290 7.5590 194° South 455 524 35,000  Level FlightAware
08:15AM 47.0370 7.5190 197° South 453 521 35,000  Level FlightAware
08:16AM 46.9660 7.4810 200° South 453 521 35,000  Level FlightAware
08:17AM 46.9030 7.4030 220° Southwest 452 520 35,000  Level FlightAware
08:17AM 46.8580 7.2910 240° Southwest 450 518 35,000  Level FlightAware
08:18AM 46.8150 7.1800 241° Southwest 450 518 35,000  Level FlightAware
08:19AM 46.7690 7.0610 241° Southwest 452 520 35,000  Level FlightAware
08:19AM 46.7280 6.9550 241° Southwest 455 524 35,000  Level FlightAware
08:20AM 46.6890 6.8500 242° Southwest 454 522 35,000  Level FlightAware
08:21AM 46.6670 6.7180 256° West 450 518 35,000 60 Level FlightAware
08:22AM 46.6500 6.5870 259° West 448 516 35,100  Climbing FlightAware
08:22AM 46.6340 6.4720 259° West 449 517 35,000 -120 Descending FlightAware
08:23AM 46.6150 6.3370 258° West 447 514 35,000  Level FlightAware
08:24AM 46.5970 6.2170 258° West 446 513 35,000  Level FlightAware
08:24AM 46.5790 6.0940 258° West 446 513 35,000  Level FlightAware
08:25AM 46.5620 5.9740 258° West 447 514 35,000  Level FlightAware
08:26AM 46.5470 5.8630 259° West 445 512 35,000  Level FlightAware
08:26AM 46.5260 5.7320 257° West 446 513 35,000  Level FlightAware
08:27AM 46.4810 5.6250 239° Southwest 451 519 35,000  Level FlightAware
08:28AM 46.4190 5.5270 227° Southwest 452 520 35,000  Level FlightAware
08:29AM 46.3630 5.4370 228° Southwest 452 520 35,000  Level FlightAware
08:29AM 46.3050 5.3460 227° Southwest 452 520 35,000  Level FlightAware
08:30AM 46.2430 5.2490 227° Southwest 451 519 35,000  Level FlightAware
08:31AM 46.1850 5.1590 227° Southwest 449 517 35,000  Level FlightAware
08:31AM 46.1230 5.0620 227° Southwest 447 514 35,000  Level FlightAware
08:32AM 46.0730 4.9840 227° Southwest 445 512 35,000  Level FlightAware
08:33AM 46.0250 4.8900 234° Southwest 440 506 35,000  Level FlightAware
08:33AM 45.9880 4.7960 240° Southwest 437 503 35,000  Level FlightAware
08:34AM 45.9400 4.6780 240° Southwest 436 502 35,000  Level FlightAware
08:35AM 45.8990 4.5750 240° Southwest 435 501 35,000  Level FlightAware
08:35AM 45.8560 4.4680 240° Southwest 435 501 35,000  Level FlightAware
08:36AM 45.8170 4.3710 240° Southwest 434 499 35,000  Level FlightAware
08:37AM 45.7780 4.2740 240° Southwest 432 497 35,000  Level FlightAware
08:37AM 45.7330 4.1730 237° Southwest 432 497 35,000  Level FlightAware
08:38AM 45.6840 4.0790 233° Southwest 434 499 35,000  Level FlightAware
08:39AM 45.6350 3.9870 233° Southwest 436 502 35,000  Level FlightAware
08:40AM 45.5800 3.8840 233° Southwest 440 506 35,000  Level FlightAware
08:40AM 45.5290 3.7870 233° Southwest 442 509 35,000  Level FlightAware
08:41AM 45.4780 3.6920 233° Southwest 443 510 35,000 60 Level FlightAware
08:42AM 45.4240 3.5930 232° Southwest 443 510 35,100  Climbing FlightAware
08:42AM 45.3800 3.5100 233° Southwest 441 507 35,000 -120 Descending FlightAware
08:43AM 45.3340 3.4250 232° Southwest 441 507 35,000  Level FlightAware
08:44AM 45.2790 3.3240 232° Southwest 440 506 35,000  Level FlightAware
08:44AM 45.2340 3.2400 233° Southwest 438 504 35,000  Level FlightAware
08:45AM 45.1850 3.1520 232° Southwest 437 503 35,000  Level FlightAware
08:46AM 45.1350 3.0590 233° Southwest 436 502 35,000  Level FlightAware
08:46AM 45.0810 2.9620 232° Southwest 436 502 35,000  Level FlightAware
08:47AM 45.0320 2.8730 232° Southwest 436 502 35,000  Level FlightAware
08:48AM 44.9760 2.7720 232° Southwest 435 501 35,000  Level FlightAware
08:48AM 44.9280 2.6850 232° Southwest 434 499 35,000  Level FlightAware
08:49AM 44.8800 2.5980 232° Southwest 434 499 35,000  Level FlightAware
08:50AM 44.8300 2.5100 231° Southwest 435 501 35,000  Level FlightAware
08:50AM 44.7750 2.4190 230° Southwest 436 502 35,000  Level FlightAware
08:51AM 44.7210 2.3430 225° Southwest 435 501 35,000  Level FlightAware
08:52AM 44.6640 2.2640 225° Southwest 434 499 35,000  Level FlightAware
08:52AM 44.6180 2.1980 226° Southwest 431 496 35,000  Level FlightAware
08:53AM 44.5700 2.1310 225° Southwest 429 494 35,000  Level FlightAware
08:53AM 44.5120 2.0510 225° Southwest 429 494 35,000  Level FlightAware
08:54AM 44.4570 1.9750 225° Southwest 428 493 35,000  Level FlightAware
08:55AM 44.4000 1.8950 225° Southwest 427 491 35,000  Level FlightAware
08:55AM 44.3380 1.8100 224° Southwest 427 491 35,000  Level FlightAware
08:56AM 44.2750 1.7230 225° Southwest 428 493 35,000  Level FlightAware
08:57AM 44.2180 1.6460 224° Southwest 427 491 35,000  Level FlightAware
08:58AM 44.1560 1.5610 225° Southwest 427 491 35,000  Level FlightAware
08:58AM 44.1000 1.4840 225° Southwest 427 491 35,000  Level FlightAware
08:59AM 44.0430 1.4080 224° Southwest 427 491 35,000  Level FlightAware
08:59AM 44.0020 1.3520 225° Southwest 425 489 35,000 60 Level FlightAware
09:00AM 43.9410 1.2690 224° Southwest 420 483 35,100  Climbing FlightAware
09:01AM 43.8840 1.1930 224° Southwest 414 476 35,000 -120 Descending FlightAware
09:02AM 43.8270 1.1160 224° Southwest 409 471 35,000  Level FlightAware
09:02AM 43.7730 1.0430 224° Southwest 408 470 35,000  Level FlightAware
09:03AM 43.7130 0.9630 224° Southwest 408 470 35,000 -120 Level FlightAware
09:04AM 43.6590 0.8910 224° Southwest 410 472 34,900  Descending FlightAware
09:04AM 43.6040 0.8180 224° Southwest 413 475 35,000 60 Climbing FlightAware
09:05AM 43.5420 0.7350 224° Southwest 420 483 35,000  Level FlightAware
09:06AM 43.4810 0.6550 224° Southwest 427 491 35,000 60 Level FlightAware
09:06AM 43.4190 0.5730 224° Southwest 431 496 35,100 60 Climbing FlightAware
09:07AM 43.3570 0.4920 224° Southwest 436 502 35,100 -120 Level FlightAware
09:08AM 43.3000 0.4170 224° Southwest 437 503 35,000 -120 Descending FlightAware
09:09AM 43.2360 0.3330 224° Southwest 439 505 35,000  Level FlightAware
09:09AM 43.1900 0.2730 224° Southwest 442 509 35,000  Level FlightAware
09:10AM 43.1240 0.1880 223° Southwest 444 511 35,000  Level FlightAware
09:11AM 43.0640 0.1090 224° Southwest 435 501 35,000  Level FlightAware
09:11AM 42.9980 0.0250 223° Southwest 435 501 35,000  Level FlightAware
09:12AM 42.9360 -0.0550 223° Southwest 437 503 35,000  Level FlightAware
09:13AM 42.8940 -0.1090 223° Southwest 439 505 35,000  Level FlightAware
09:13AM 42.8160 -0.2070 223° Southwest 440 506 35,000  Level FlightAware
09:14AM 42.7420 -0.2760 214° Southwest 440 506 35,000  Level FlightAware
09:15AM 42.6670 -0.3300 208° Southwest 441 507 35,000  Level FlightAware
09:15AM 42.5870 -0.3870 208° Southwest 443 510 35,000  Level FlightAware
09:16AM 42.5140 -0.4380 207° Southwest 445 512 35,000  Level FlightAware
09:17AM 42.4340 -0.4950 208° Southwest 445 512 35,000  Level FlightAware
09:17AM 42.3680 -0.5410 207° Southwest 446 513 35,000  Level FlightAware
09:18AM 42.2800 -0.6020 207° Southwest 447 514 35,000  Level FlightAware
09:19AM 42.2100 -0.6510 207° Southwest 446 513 35,000  Level FlightAware
09:20AM 42.1270 -0.7120 209° Southwest 445 512 35,000  Level FlightAware
09:20AM 42.0550 -0.7700 211° Southwest 445 512 35,000  Level FlightAware
09:21AM 41.9830 -0.8300 212° Southwest 444 511 35,000  Level FlightAware
09:22AM 41.9110 -0.8930 213° Southwest 442 509 35,000  Level FlightAware
09:22AM 41.8440 -0.9560 215° Southwest 441 507 35,000  Level FlightAware
09:23AM 41.7700 -1.0250 215° Southwest 440 506 35,000  Level FlightAware
09:24AM 41.7020 -1.0880 215° Southwest 439 505 35,000  Level FlightAware
09:25AM 41.6320 -1.1540 215° Southwest 437 503 35,000  Level FlightAware
09:25AM 41.5740 -1.2070 214° Southwest 437 503 35,000  Level FlightAware
09:26AM 41.4990 -1.2760 215° Southwest 435 501 35,000  Level FlightAware
09:27AM 41.4340 -1.3370 215° Southwest 434 499 35,000  Level FlightAware
09:27AM 41.3750 -1.3930 215° Southwest 435 501 35,000  Level FlightAware
09:28AM 41.3120 -1.4520 215° Southwest 438 504 35,000  Level FlightAware
09:29AM 41.2320 -1.5170 211° Southwest 445 512 35,000  Level FlightAware
09:29AM 41.1640 -1.5690 210° Southwest 449 517 35,000 60 Level FlightAware
09:30AM 41.0830 -1.6320 210° Southwest 449 517 35,100 60 Climbing FlightAware
09:31AM 41.0030 -1.6930 210° Southwest 450 518 35,100 -120 Level FlightAware
09:31AM 40.9330 -1.7460 210° Southwest 450 518 35,000 -120 Descending FlightAware
09:32AM 40.8690 -1.7950 210° Southwest 449 517 35,000  Level FlightAware
09:33AM 40.7930 -1.8530 210° Southwest 447 514 35,000  Level FlightAware
09:33AM 40.7140 -1.9120 210° Southwest 445 512 35,000  Level FlightAware
09:34AM 40.6570 -1.9570 211° Southwest 445 512 35,000  Level FlightAware
09:35AM 40.5830 -2.0150 211° Southwest 443 510 35,000  Level FlightAware
09:35AM 40.5100 -2.0720 211° Southwest 439 505 35,000  Level FlightAware
09:36AM 40.4350 -2.1310 211° Southwest 442 509 35,000  Level FlightAware
09:37AM 40.3620 -2.1870 210° Southwest 441 507 35,000  Level FlightAware
09:37AM 40.2850 -2.2470 211° Southwest 438 504 35,000  Level FlightAware
09:38AM 40.2210 -2.2960 210° Southwest 437 503 35,000  Level FlightAware
09:39AM 40.1690 -2.3370 211° Southwest 435 501 35,000  Level FlightAware
09:39AM 40.0920 -2.3970 211° Southwest 436 502 35,000  Level FlightAware
09:39AM 40.0780 -2.4070 209° Southwest 437 503 35,000  Level FlightAware
09:41AM 39.9530 -2.5030 210° Southwest 440 506 35,000  Level FlightAware
09:41AM 39.8770 -2.5610 210° Southwest 441 507 35,000 60 Level FlightAware
09:42AM 39.8140 -2.6090 210° Southwest 441 507 35,100  Climbing FlightAware
09:43AM 39.7420 -2.6640 210° Southwest 441 507 35,000 -120 Descending FlightAware
09:43AM 39.6700 -2.7190 210° Southwest 440 506 35,000  Level FlightAware
09:44AM 39.5930 -2.7770 210° Southwest 440 506 35,000  Level FlightAware
09:45AM 39.5220 -2.8310 210° Southwest 440 506 35,000  Level FlightAware
09:45AM 39.4490 -2.8850 210° Southwest 441 507 35,000  Level FlightAware
09:46AM 39.3730 -2.9430 211° Southwest 443 510 35,000  Level FlightAware
09:47AM 39.3020 -2.9960 210° Southwest 442 509 35,000  Level FlightAware
09:47AM 39.2390 -3.0430 210° Southwest 442 509 35,000  Level FlightAware
09:48AM 39.1650 -3.0990 210° Southwest 443 510 35,000  Level FlightAware
09:49AM 39.0930 -3.1520 210° Southwest 443 510 35,000  Level FlightAware
09:49AM 39.0290 -3.2000 210° Southwest 444 511 35,000  Level FlightAware
09:50AM 38.9510 -3.2440 204° Southwest 447 514 35,000  Level FlightAware
09:51AM 38.8740 -3.2890 204° Southwest 442 509 35,000  Level FlightAware
09:51AM 38.8130 -3.3380 212° Southwest 443 510 35,000  Level FlightAware
09:52AM 38.7460 -3.3920 212° Southwest 444 511 35,000  Level FlightAware
09:53AM 38.6640 -3.4580 212° Southwest 446 513 35,000  Level FlightAware
09:53AM 38.5840 -3.5230 212° Southwest 447 514 35,000  Level FlightAware
09:54AM 38.5130 -3.5810 213° Southwest 450 518 35,000  Level FlightAware
09:55AM 38.4470 -3.6350 213° Southwest 452 520 35,000  Level FlightAware
09:56AM 38.3690 -3.6970 212° Southwest 454 522 35,000  Level FlightAware
09:56AM 38.2990 -3.7530 212° Southwest 456 525 35,000  Level FlightAware
09:57AM 38.2280 -3.8100 212° Southwest 457 526 35,000 -480 Level FlightAware
09:57AM 38.1560 -3.8680 212° Southwest 457 526 34,400 -1,620 Descending FlightAware
09:58AM 38.0770 -3.9310 212° Southwest 447 514 32,800 -2,220 Descending FlightAware
09:59AM 38.0140 -3.9810 212° Southwest 440 506 31,500 -2,400 Descending FlightAware
10:00AM 37.9310 -4.0460 212° Southwest 436 502 29,500 -2,580 Descending FlightAware
10:00AM 37.8630 -4.1000 212° Southwest 434 499 27,800 -2,520 Descending FlightAware
10:01AM 37.7860 -4.1610 212° Southwest 430 495 25,900 -2,460 Descending FlightAware
10:02AM 37.7190 -4.2140 212° Southwest 422 486 24,300 -2,520 Descending FlightAware
10:02AM 37.6520 -4.2660 212° Southwest 416 479 22,600 -2,460 Descending FlightAware
10:03AM 37.5850 -4.3180 212° Southwest 410 472 20,900 -2,400 Descending FlightAware
10:03AM 37.5560 -4.3300 198° South 411 473 20,300 -1,620 Descending FlightAware
10:04AM 37.4850 -4.3340 183° South 388 447 19,500 -1,200 Descending FlightAware
10:04AM 37.4540 -4.3420 192° South 363 418 19,200 -840 Descending FlightAware
10:04AM 37.4390 -4.3520 208° Southwest 350 403 19,100 -900 Descending FlightAware
10:05AM 37.3850 -4.4030 217° Southwest 323 372 18,400 -1,200 Descending FlightAware
10:06AM 37.3340 -4.4510 217° Southwest 310 357 17,400 -1,440 Descending FlightAware
10:07AM 37.2890 -4.4930 217° Southwest 305 351 16,400 -1,500 Descending FlightAware
10:07AM 37.2400 -4.5400 217° Southwest 295 339 15,300 -1,680 Descending FlightAware
10:08AM 37.1960 -4.5810 217° Southwest 297 342 14,100 -1,740 Descending FlightAware
10:09AM 37.1510 -4.6240 217° Southwest 295 339 13,000 -1,740 Descending FlightAware
10:09AM 37.1030 -4.6710 218° Southwest 293 337 11,700 -1,680 Descending FlightAware
10:10AM 37.0590 -4.7120 217° Southwest 287 330 10,700 -1,680 Descending FlightAware
10:10AM 37.0380 -4.7330 219° Southwest 286 329 10,000 -2,400 Descending FlightAware
10:11AM 37.0100 -4.7600 218° Southwest 288 331 8,800 -2,580 Descending FlightAware
10:11AM 37.0000 -4.7700 219° Southwest 288 331 8,400 -1,680 Descending FlightAware
10:12AM 36.9760 -4.7930 217° Southwest 280 322 7,600 -1,680 Descending FlightAware
10:12AM 36.9480 -4.8200 218° Southwest 262 302 7,100 -1,080 Descending FlightAware
10:12AM 36.9260 -4.8320 204° Southwest 246 283 6,900 -780 Descending FlightAware
10:13AM 36.8960 -4.8090 148° Southeast 230 265 6,400 -1,260 Descending FlightAware
10:13AM 36.8750 -4.7820 134° Southeast 219 252 5,600 -1,440 Descending FlightAware
10:14AM 36.8600 -4.7590 129° Southeast 207 238 5,200 -1,080 Descending FlightAware
10:14AM 36.8400 -4.7320 133° Southeast 197 227 4,600 -1,080 Descending FlightAware
10:15AM 36.8250 -4.7110 132° Southeast 197 227 4,200 -1,080 Descending FlightAware
10:15AM 36.8090 -4.6870 130° Southeast 190 219 3,700 -1,140 Descending FlightAware
10:16AM 36.7910 -4.6610 131° Southeast 186 214 3,100 -1,080 Descending FlightAware
10:16AM 36.7830 -4.6510 135° Southeast 181 208 2,900 -900 Descending FlightAware
10:16AM 36.7690 -4.6310 131° Southeast 174 200 2,500 -840 Descending FlightAware
10:17AM 36.7560 -4.6130 132° Southeast 177 204 2,200 -1,020 Descending FlightAware
10:17AM 36.7430 -4.5940 130° Southeast 165 190 1,700 -1,020 Descending FlightAware
10:18AM 36.7280 -4.5730 132° Southeast 147 169 1,300 -780 Descending FlightAware
10:18AM 36.7160 -4.5570 133° Southeast 145 167 1,000 -840 Descending FlightAware
10:18AM 36.7110 -4.5490 128° Southeast 145 167 800 -840 Descending FlightAware
10:19AM 36.7000 -4.5340 132° Southeast 145 167 500 -780 Descending FlightAware
10:19AM 36.6900 -4.5200 132° Southeast 143 165 200 -780 Descending FlightAware
10:19AM 36.6820 -4.5090 132° Southeast 143 165 -720 Descending FlightAware
10:20AM 36.6740 -4.4980 132° Southeast 51 59  Level FlightAware
10:20AM 36.6730 -4.4960 122° Southeast 27 31  Level FlightAware
10:20AM 36.6730 -4.4950 90° East 24 28  Level FlightAware
10:21AM 36.6740 -4.4950 360° North 31 36  Level FlightAware
10:21AM 36.6760 -4.4980 310° West 20 23  Level FlightAware
10:22AM 36.6770 -4.4990 321° Northwest 31 36  Level FlightAware
10:22AM 36.6790 -4.4980 22° Northeast 34 39  Level FlightAware
10:23AM 36.6800 -4.4960 58° Northeast 15 17  Level FlightAware
10:23AM 36.6790 -4.4950 141° Southeast 23 26  Level FlightAware
10:26AM 36.6749 -4.4991 219° Southwest  Level Estimated